createdAt,value
2018-04-22T19:46:42.038Z,72.10
2018-04-22T19:47:47.103Z,72.70
2018-04-22T19:48:52.192Z,72.80
2018-04-22T19:49:56.973Z,73.20
2018-04-22T19:51:01.597Z,73.40
2018-04-22T19:52:05.746Z,74.30
2018-04-22T19:53:10.880Z,74.20
2018-04-22T19:54:16.656Z,74.50
2018-04-22T19:55:22.161Z,74.90
2018-04-22T19:56:29.350Z,75.20
2018-04-22T19:57:32.853Z,76.00
2018-04-22T19:58:37.851Z,75.70
2018-04-22T19:59:44.337Z,76.30
2018-04-22T20:00:49.451Z,77.40
2018-04-22T20:01:55.187Z,76.90
2018-04-22T20:02:59.783Z,77.40
2018-04-22T20:04:03.677Z,78.10
2018-04-22T20:05:08.399Z,78.30
2018-04-22T20:06:12.443Z,78.80
2018-04-22T20:07:16.680Z,79.40
2018-04-22T20:08:20.890Z,79.30
2018-04-22T20:09:25.121Z,80.20
2018-04-22T20:10:28.965Z,80.20
2018-04-22T20:11:32.395Z,80.00
2018-04-22T20:12:36.573Z,80.20
2018-04-22T20:13:42.672Z,80.80
2018-04-22T20:14:46.534Z,80.80
2018-04-22T20:15:52.428Z,80.70
2018-04-22T20:16:55.980Z,81.60
2018-04-22T20:17:59.486Z,82.70
2018-04-22T20:19:04.246Z,82.70
2018-04-22T20:20:08.551Z,81.70
2018-04-22T20:21:13.935Z,81.80
2018-04-22T20:22:18.976Z,82.20
2018-04-22T20:23:22.492Z,82.80
2018-04-22T20:24:26.676Z,83.70
2018-04-22T20:25:30.442Z,83.70
2018-04-22T20:26:34.165Z,84.20
2018-04-22T20:27:39.099Z,84.10
2018-04-22T20:28:44.971Z,83.90
2018-04-22T20:29:49.084Z,84.00
2018-04-22T20:30:53.497Z,84.80
2018-04-22T20:31:58.490Z,84.10
2018-04-22T20:33:02.109Z,84.70
2018-04-22T20:34:06.885Z,85.10
2018-04-22T20:35:11.216Z,85.50
2018-04-22T20:36:15.516Z,86.00
2018-04-22T20:37:20.530Z,86.50
2018-04-22T20:38:25.988Z,86.70
2018-04-22T20:39:32.968Z,87.60
2018-04-22T20:40:37.693Z,87.50
2018-04-22T20:41:42.241Z,87.40
2018-04-22T20:42:46.545Z,87.40
2018-04-22T20:43:50.148Z,87.60
2018-04-22T20:44:53.834Z,88.30
2018-04-22T20:45:57.338Z,88.30
2018-04-22T20:47:01.428Z,88.80
2018-04-22T20:48:05.072Z,89.10
2018-04-22T20:49:08.767Z,90.00
2018-04-22T20:50:12.220Z,90.20
2018-04-22T20:51:15.611Z,90.20
2018-04-22T20:52:19.001Z,90.40
2018-04-22T20:53:22.966Z,90.40
2018-04-22T20:54:26.747Z,90.40
2018-04-22T20:55:30.123Z,90.60
2018-04-22T20:56:34.482Z,90.80
2018-04-22T20:57:37.882Z,90.80
2018-04-22T20:58:42.027Z,90.80
2018-04-22T20:59:45.377Z,91.00
2018-04-22T21:00:49.034Z,91.00
2018-04-22T21:01:52.420Z,91.30
2018-04-22T21:02:55.822Z,91.60
2018-04-22T21:03:59.191Z,91.50
2018-04-22T21:05:02.625Z,91.70
2018-04-22T21:06:06.401Z,91.90
2018-04-22T21:07:09.880Z,92.20
2018-04-22T21:08:14.269Z,92.20
2018-04-22T21:09:17.606Z,92.40
2018-04-22T21:10:20.968Z,92.60
2018-04-22T21:11:24.344Z,92.60
2018-04-22T21:12:28.591Z,92.70
2018-04-22T21:13:31.970Z,92.80
2018-04-22T21:14:35.345Z,93.00
2018-04-22T21:15:38.942Z,93.30
2018-04-22T21:16:42.371Z,93.30
2018-04-22T21:17:46.060Z,93.40
2018-04-22T21:18:50.283Z,93.60
2018-04-22T21:19:53.597Z,93.60
2018-04-22T21:20:56.984Z,93.60
2018-04-22T21:22:00.456Z,93.70
2018-04-22T21:23:03.833Z,93.90
2018-04-22T21:24:07.178Z,94.00
2018-04-22T21:25:10.557Z,94.10
2018-04-22T21:26:13.867Z,94.00
2018-04-22T21:27:18.289Z,94.10
2018-04-22T21:28:21.699Z,94.20
2018-04-22T21:29:24.993Z,94.40
2018-04-22T21:30:31.524Z,94.60
2018-04-22T21:31:34.864Z,94.80
2018-04-22T21:33:47.671Z,95.20
2018-04-22T21:34:51.019Z,95.30
2018-04-22T21:35:54.376Z,95.60
2018-04-22T21:36:58.461Z,95.80
2018-04-22T21:38:02.585Z,95.80
2018-04-22T21:39:06.577Z,95.80
2018-04-22T21:40:09.938Z,95.90
2018-04-22T21:41:13.305Z,96.10
2018-04-22T21:42:16.656Z,96.20
2018-04-22T21:43:20.417Z,96.30
2018-04-22T21:44:23.763Z,96.40
2018-04-22T21:45:27.207Z,96.40
2018-04-22T21:46:30.820Z,96.30
2018-04-22T21:47:34.263Z,96.50
2018-04-22T21:48:37.686Z,96.60
2018-04-22T21:49:41.013Z,96.80
2018-04-22T21:50:44.367Z,97.00
2018-04-22T21:51:48.421Z,97.10
2018-04-22T21:52:52.326Z,97.60
2018-04-22T21:53:56.457Z,97.50
2018-04-22T21:54:59.821Z,97.50
2018-04-22T21:56:03.198Z,97.50
2018-04-22T21:57:06.472Z,97.50
2018-04-22T21:58:09.803Z,97.60
2018-04-22T21:59:13.209Z,97.80
2018-04-22T22:00:16.549Z,98.00
2018-04-22T22:01:19.930Z,98.00
2018-04-22T22:02:24.066Z,98.20
2018-04-22T22:03:27.436Z,98.20
2018-04-22T22:04:30.836Z,98.30
2018-04-22T22:05:34.322Z,98.50
2018-04-22T22:06:37.654Z,98.50
2018-04-22T22:07:41.018Z,98.80
2018-04-22T22:08:44.337Z,99.00
2018-04-22T22:09:47.738Z,99.00
2018-04-22T22:10:51.072Z,99.10
2018-04-22T22:11:54.408Z,99.20
2018-04-22T22:12:57.834Z,99.40
2018-04-22T22:14:01.202Z,99.20
2018-04-22T22:15:04.599Z,99.20
2018-04-22T22:16:07.934Z,99.20
2018-04-22T22:17:11.320Z,99.40
2018-04-22T22:18:14.688Z,99.40
2018-04-22T22:19:18.023Z,99.60
2018-04-22T22:20:22.138Z,99.70
2018-04-22T22:21:25.452Z,99.70
2018-04-22T22:22:28.782Z,99.70
2018-04-22T22:23:32.132Z,99.70
2018-04-22T22:24:35.467Z,99.90
2018-04-22T22:25:38.874Z,99.90
2018-04-22T22:26:42.212Z,99.90
2018-04-22T22:27:46.303Z,99.90
2018-04-22T22:28:49.625Z,99.90
2018-04-22T22:29:52.991Z,99.90
2018-04-22T22:30:56.352Z,99.90
2018-04-22T22:31:59.737Z,99.90
2018-04-22T22:33:03.057Z,99.90
2018-04-22T22:34:06.402Z,99.90
2018-04-22T22:35:09.722Z,99.90
2018-04-22T22:36:13.130Z,99.90
2018-04-22T22:37:16.479Z,99.90
2018-04-22T22:38:19.884Z,99.90
2018-04-22T22:39:26.736Z,99.90
2018-04-22T22:40:30.270Z,99.90
2018-04-22T22:41:33.599Z,99.90
2018-04-22T22:42:36.895Z,99.90
2018-04-22T22:43:40.276Z,99.90
2018-04-22T22:44:43.645Z,99.90
2018-04-22T22:45:46.988Z,99.90
2018-04-22T22:46:50.318Z,99.90
2018-04-22T22:47:53.690Z,99.90
2018-04-22T22:48:57.116Z,99.90
2018-04-22T22:50:00.512Z,99.90
2018-04-22T22:51:03.882Z,99.90
2018-04-22T22:52:07.245Z,99.90
2018-04-22T22:53:10.586Z,99.90
2018-04-22T22:54:13.933Z,99.90
2018-04-22T22:55:17.260Z,99.90
2018-04-22T22:56:20.630Z,99.90
2018-04-22T22:57:24.820Z,99.90
2018-04-22T22:58:28.948Z,99.90
2018-04-22T22:59:32.268Z,99.90
2018-04-22T23:00:35.661Z,99.90
2018-04-22T23:01:38.979Z,99.90
2018-04-22T23:02:42.325Z,99.90
2018-04-22T23:03:45.748Z,99.90
2018-04-22T23:04:49.138Z,99.90
2018-04-22T23:05:52.800Z,99.90
2018-04-22T23:06:56.255Z,99.90
2018-04-22T23:08:01.294Z,99.90
2018-04-22T23:09:04.709Z,99.90
2018-04-22T23:10:08.104Z,99.90
2018-04-22T23:11:11.448Z,99.90
2018-04-22T23:12:14.813Z,99.90
2018-04-22T23:13:18.228Z,99.90
2018-04-22T23:14:21.599Z,99.90
2018-04-22T23:15:25.046Z,99.90
2018-04-22T23:16:28.468Z,99.90
2018-04-22T23:17:33.032Z,99.90
2018-04-22T23:18:36.409Z,99.90
2018-04-22T23:19:39.910Z,99.90
2018-04-22T23:20:43.248Z,99.90
2018-04-22T23:21:46.606Z,99.90
2018-04-22T23:22:49.953Z,99.90
2018-04-22T23:23:53.312Z,99.90
2018-04-22T23:24:56.676Z,99.90
2018-04-22T23:26:00.051Z,99.90
2018-04-22T23:27:03.398Z,99.90
2018-04-22T23:28:06.807Z,99.90
2018-04-22T23:29:10.186Z,99.90
2018-04-22T23:30:13.557Z,99.90
2018-04-22T23:31:16.875Z,99.90
2018-04-22T23:32:20.979Z,99.90
2018-04-22T23:33:24.317Z,99.90
2018-04-22T23:34:27.660Z,99.90
2018-04-22T23:35:31.043Z,99.90
2018-04-22T23:36:34.471Z,99.90
2018-04-22T23:37:37.939Z,99.90
2018-04-22T23:38:41.497Z,99.90
2018-04-22T23:39:44.883Z,99.90
2018-04-22T23:40:48.212Z,99.90
2018-04-22T23:41:51.628Z,99.90
2018-04-22T23:42:54.970Z,99.90
2018-04-22T23:43:58.407Z,99.90
2018-04-22T23:45:03.403Z,99.90
2018-04-22T23:46:06.791Z,99.90
2018-04-22T23:47:10.168Z,99.90
2018-04-22T23:48:13.569Z,99.90
2018-04-22T23:49:17.035Z,99.90
2018-04-22T23:50:20.409Z,99.90
2018-04-22T23:51:23.781Z,99.90
2018-04-22T23:52:27.867Z,99.90
2018-04-22T23:53:31.211Z,99.90
2018-04-22T23:54:35.351Z,99.90
2018-04-22T23:55:38.778Z,99.90
2018-04-22T23:56:42.125Z,99.90
2018-04-22T23:57:45.513Z,99.90
2018-04-22T23:58:48.876Z,99.90
2018-04-22T23:59:52.218Z,99.90
